createdAt,value
2018-05-03T00:00:02.297Z,13.60
2018-05-03T00:02:31.750Z,13.60
2018-05-03T00:05:00.993Z,13.50
2018-05-03T00:07:30.229Z,13.40
2018-05-03T00:10:00.312Z,13.20
2018-05-03T00:12:29.715Z,13.20
2018-05-03T00:14:58.916Z,13.20
2018-05-03T00:17:28.115Z,13.20
2018-05-03T00:19:57.304Z,13.20
2018-05-03T00:22:29.460Z,13.10
2018-05-03T00:24:58.672Z,13.10
2018-05-03T00:27:27.979Z,13.00
2018-05-03T00:29:57.171Z,13.00
2018-05-03T00:32:26.606Z,13.00
2018-05-03T00:34:55.815Z,12.90
2018-05-03T00:37:25.771Z,13.00
2018-05-03T00:39:54.936Z,13.00
2018-05-03T00:42:25.028Z,13.20
2018-05-03T00:44:54.265Z,13.20
2018-05-03T00:47:24.218Z,13.20
2018-05-03T00:49:53.520Z,13.20
2018-05-03T00:52:22.791Z,13.20
2018-05-03T00:54:52.731Z,13.20
2018-05-03T00:57:21.925Z,13.20
2018-05-03T00:59:50.938Z,13.20
2018-05-03T01:02:20.187Z,13.20
2018-05-03T01:04:49.506Z,13.10
2018-05-03T01:07:18.832Z,13.10
2018-05-03T01:09:48.090Z,13.10
2018-05-03T01:12:17.329Z,13.00
2018-05-03T01:14:47.322Z,12.90
2018-05-03T01:17:16.576Z,12.90
2018-05-03T01:19:45.875Z,12.80
2018-05-03T01:22:15.147Z,12.70
2018-05-03T01:24:44.382Z,12.70
2018-05-03T01:27:13.718Z,12.60
2018-05-03T01:29:43.015Z,12.50
2018-05-03T01:32:13.072Z,12.50
2018-05-03T01:34:42.316Z,12.50
2018-05-03T01:37:11.556Z,12.40
2018-05-03T01:39:41.589Z,12.30
2018-05-03T01:42:10.882Z,12.30
2018-05-03T01:44:40.152Z,12.20
2018-05-03T01:47:09.421Z,12.20
2018-05-03T01:49:39.537Z,12.20
2018-05-03T01:52:09.541Z,12.10
2018-05-03T01:54:38.865Z,12.10
2018-05-03T01:57:08.148Z,12.20
2018-05-03T01:59:38.596Z,12.20
2018-05-03T02:02:07.784Z,12.20
2018-05-03T02:04:37.073Z,12.10
2018-05-03T02:07:06.321Z,12.10
2018-05-03T02:09:35.585Z,12.00
2018-05-03T02:12:05.614Z,12.00
2018-05-03T02:14:34.902Z,11.90
2018-05-03T02:17:04.915Z,11.70
2018-05-03T02:19:36.023Z,11.60
2018-05-03T02:22:05.371Z,11.60
2018-05-03T02:24:34.646Z,11.50
2018-05-03T02:27:03.961Z,11.40
2018-05-03T02:29:33.335Z,11.40
2018-05-03T02:32:03.432Z,11.50
2018-05-03T02:34:32.851Z,11.40
2018-05-03T02:37:02.194Z,11.50
2018-05-03T02:39:31.534Z,11.60
2018-05-03T02:42:01.871Z,11.70
2018-05-03T02:44:31.302Z,11.80
2018-05-03T02:47:01.628Z,12.00
2018-05-03T02:49:30.997Z,12.00
2018-05-03T02:52:00.409Z,12.10
2018-05-03T02:54:29.797Z,12.20
2018-05-03T02:57:11.736Z,12.40
2018-05-03T02:59:53.619Z,12.40
2018-05-03T03:02:29.218Z,12.50
2018-05-03T03:05:16.210Z,12.50
2018-05-03T03:11:36.051Z,12.30
2018-05-03T03:14:27.625Z,12.30
2018-05-03T03:17:15.021Z,12.30
2018-05-03T03:19:53.540Z,12.20
2018-05-03T03:22:40.435Z,12.20
2018-05-03T03:28:57.663Z,12.00
2018-05-03T03:31:44.612Z,11.90
2018-05-03T03:34:28.476Z,11.80
2018-05-03T03:37:15.469Z,11.70
2018-05-03T03:40:02.329Z,11.70
2018-05-03T03:45:44.177Z,11.50
2018-05-03T03:48:14.140Z,11.30
2018-05-03T03:50:43.439Z,11.30
2018-05-03T03:53:12.716Z,11.30
2018-05-03T03:55:42.050Z,11.20
2018-05-03T03:58:11.425Z,11.20
2018-05-03T04:00:40.757Z,11.20
2018-05-03T04:03:10.001Z,11.30
2018-05-03T04:05:39.256Z,11.20
2018-05-03T04:08:09.252Z,11.20
2018-05-03T04:10:38.464Z,11.20
2018-05-03T04:13:07.677Z,11.20
2018-05-03T04:15:36.905Z,11.20
2018-05-03T04:18:18.627Z,11.10
2018-05-03T04:21:09.621Z,11.00
2018-05-03T04:23:50.766Z,11.00
2018-05-03T04:26:20.085Z,11.00
2018-05-03T04:28:49.373Z,11.00
2018-05-03T04:31:18.699Z,11.00
2018-05-03T04:33:47.962Z,11.00
2018-05-03T04:36:18.024Z,11.10
2018-05-03T04:38:47.316Z,11.10
2018-05-03T04:41:16.542Z,11.20
2018-05-03T04:43:45.840Z,11.30
2018-05-03T04:46:15.936Z,11.40
2018-05-03T04:48:45.228Z,11.40
2018-05-03T04:51:14.501Z,11.50
2018-05-03T04:53:44.473Z,11.70
2018-05-03T04:56:13.852Z,11.60
2018-05-03T04:58:43.073Z,11.70
2018-05-03T05:01:12.300Z,11.80
2018-05-03T05:03:41.633Z,12.00
2018-05-03T05:06:10.945Z,12.10
2018-05-03T05:08:40.274Z,12.30
2018-05-03T05:11:10.274Z,12.80
2018-05-03T05:13:39.542Z,12.80
2018-05-03T05:16:08.805Z,12.90
2018-05-03T05:18:38.049Z,13.10
2018-05-03T05:21:07.495Z,13.10
2018-05-03T05:23:36.802Z,13.20
2018-05-03T05:26:06.055Z,13.30
2018-05-03T05:28:36.465Z,13.40
2018-05-03T05:31:06.001Z,13.40
2018-05-03T05:33:36.072Z,13.60
2018-05-03T05:36:05.390Z,13.60
2018-05-03T05:38:35.239Z,13.80
2018-05-03T05:41:05.521Z,14.10
2018-05-03T05:43:34.828Z,14.10
2018-05-03T05:46:04.207Z,14.20
2018-05-03T05:48:33.593Z,14.20
2018-05-03T05:51:02.940Z,14.30
2018-05-03T05:53:33.402Z,14.40
2018-05-03T05:56:02.718Z,14.40
2018-05-03T05:58:33.322Z,14.80
2018-05-03T06:01:02.440Z,14.80
2018-05-03T06:03:31.393Z,15.00
2018-05-03T06:06:00.371Z,15.20
2018-05-03T06:08:30.200Z,15.60
2018-05-03T06:10:59.100Z,15.60
2018-05-03T06:13:28.095Z,15.80
2018-05-03T06:15:57.075Z,15.90
2018-05-03T06:18:26.044Z,16.20
2018-05-03T06:20:55.041Z,16.20
2018-05-03T06:23:24.782Z,15.90
2018-05-03T06:25:53.760Z,15.90
2018-05-03T06:28:23.484Z,15.80
2018-05-03T06:30:52.475Z,15.70
2018-05-03T06:33:21.420Z,15.70
2018-05-03T06:35:50.404Z,15.50
2018-05-03T06:38:19.376Z,15.40
2018-05-03T06:40:48.700Z,15.40
2018-05-03T06:43:17.938Z,15.40
2018-05-03T06:45:47.244Z,15.40
2018-05-03T06:48:16.503Z,15.30
2018-05-03T06:50:45.715Z,15.10
2018-05-03T06:53:15.039Z,15.10
2018-05-03T06:55:44.223Z,15.20
2018-05-03T06:58:13.546Z,15.30
2018-05-03T07:00:42.913Z,15.40
2018-05-03T07:03:12.292Z,15.40
2018-05-03T07:05:41.481Z,15.50
2018-05-03T07:08:11.583Z,15.30
2018-05-03T07:10:40.796Z,15.20
2018-05-03T07:13:10.804Z,15.50
2018-05-03T07:15:40.039Z,15.40
2018-05-03T07:18:09.959Z,15.70
2018-05-03T07:20:39.145Z,15.60
2018-05-03T07:23:08.366Z,15.80
2018-05-03T07:25:37.587Z,15.80
2018-05-03T07:28:06.819Z,16.00
2018-05-03T07:30:37.013Z,16.30
2018-05-03T07:33:06.271Z,16.30
2018-05-03T07:35:35.469Z,16.50
2018-05-03T07:38:04.684Z,16.80
2018-05-03T07:40:34.078Z,16.90
2018-05-03T07:43:03.273Z,17.10
2018-05-03T07:45:32.592Z,17.30
2018-05-03T07:48:01.741Z,17.50
2018-05-03T07:50:30.952Z,17.60
2018-05-03T07:53:00.191Z,17.90
2018-05-03T07:55:29.405Z,17.90
2018-05-03T07:57:58.620Z,17.70
2018-05-03T08:00:28.761Z,18.00
2018-05-03T08:02:58.712Z,18.10
2018-05-03T08:05:27.962Z,18.10
2018-05-03T08:07:58.101Z,18.10
2018-05-03T08:10:28.140Z,18.00
2018-05-03T08:12:57.476Z,18.00
2018-05-03T08:15:26.961Z,18.00
2018-05-03T08:17:56.178Z,18.00
2018-05-03T08:20:25.657Z,18.10
2018-05-03T08:22:54.851Z,18.20
2018-05-03T08:25:24.176Z,18.40
2018-05-03T08:27:53.463Z,18.70
2018-05-03T08:30:22.720Z,18.80
2018-05-03T08:32:51.908Z,19.10
2018-05-03T08:35:21.981Z,19.90
2018-05-03T08:37:51.140Z,19.80
2018-05-03T08:40:20.373Z,20.20
2018-05-03T08:42:49.775Z,20.60
2018-05-03T08:45:18.990Z,20.60
2018-05-03T08:47:48.273Z,20.70
2018-05-03T08:50:17.494Z,21.00
2018-05-03T08:52:46.710Z,21.50
2018-05-03T08:55:16.787Z,21.90
2018-05-03T08:57:46.267Z,21.90
2018-05-03T09:00:15.502Z,21.80
2018-05-03T09:02:44.653Z,22.30
2018-05-03T09:05:14.623Z,22.20
2018-05-03T09:07:43.979Z,22.10
2018-05-03T09:10:13.304Z,21.80
2018-05-03T09:12:42.499Z,21.80
2018-05-03T09:15:11.697Z,21.60
2018-05-03T09:17:40.911Z,21.70
2018-05-03T09:20:10.104Z,21.60
2018-05-03T09:22:39.311Z,21.60
2018-05-03T09:25:08.595Z,21.40
2018-05-03T09:27:37.616Z,20.70
2018-05-03T09:30:06.890Z,20.30
2018-05-03T09:32:36.188Z,20.30
2018-05-03T09:35:05.405Z,20.10
2018-05-03T09:37:34.674Z,20.30
2018-05-03T09:40:03.837Z,20.60
2018-05-03T09:42:33.114Z,21.00
2018-05-03T09:45:02.382Z,21.10
2018-05-03T09:47:31.684Z,21.20
2018-05-03T09:50:00.968Z,20.60
2018-05-03T09:52:30.300Z,20.40
2018-05-03T09:54:59.593Z,20.60
2018-05-03T09:57:28.917Z,20.90
2018-05-03T09:59:58.932Z,21.10
2018-05-03T10:02:28.217Z,21.10
2018-05-03T10:04:57.448Z,21.40
2018-05-03T10:07:26.672Z,21.20
2018-05-03T10:09:55.887Z,20.60
2018-05-03T10:12:25.305Z,20.00
2018-05-03T10:14:54.600Z,20.00
2018-05-03T10:17:23.900Z,20.20
2018-05-03T10:19:53.130Z,19.90
2018-05-03T10:22:22.451Z,19.90
2018-05-03T10:24:52.395Z,19.70
2018-05-03T10:27:21.609Z,19.70
2018-05-03T10:29:51.055Z,19.80
2018-05-03T10:32:20.360Z,19.90
2018-05-03T10:34:49.676Z,20.00
2018-05-03T10:37:19.017Z,19.80
2018-05-03T10:39:48.200Z,19.80
2018-05-03T10:42:17.465Z,19.80
2018-05-03T10:44:47.446Z,20.50
2018-05-03T10:47:16.630Z,20.50
2018-05-03T10:49:45.822Z,20.60
2018-05-03T10:52:15.052Z,20.30
2018-05-03T10:54:44.350Z,20.00
2018-05-03T10:57:13.545Z,20.00
2018-05-03T10:59:42.824Z,20.00
2018-05-03T11:02:12.047Z,20.10
2018-05-03T11:04:41.224Z,20.10
2018-05-03T11:07:10.618Z,20.30
2018-05-03T11:09:39.721Z,20.70
2018-05-03T11:12:08.918Z,20.90
2018-05-03T11:14:38.240Z,20.70
2018-05-03T11:17:07.615Z,20.30
2018-05-03T11:19:36.873Z,20.40
2018-05-03T11:22:06.067Z,20.70
2018-05-03T11:24:35.305Z,21.20
2018-05-03T11:27:04.824Z,20.90
2018-05-03T11:29:34.225Z,21.00
2018-05-03T11:32:03.621Z,21.10
2018-05-03T11:34:32.865Z,21.10
2018-05-03T11:37:02.963Z,21.30
2018-05-03T11:39:32.194Z,21.30
2018-05-03T11:42:01.426Z,21.70
2018-05-03T11:44:30.832Z,21.60
2018-05-03T11:47:00.325Z,21.30
2018-05-03T11:49:29.645Z,21.40
2018-05-03T11:51:58.829Z,21.20
2018-05-03T11:54:28.181Z,21.20
2018-05-03T11:56:57.349Z,21.20
2018-05-03T11:59:26.664Z,21.40
2018-05-03T12:01:55.805Z,21.60
2018-05-03T12:04:25.088Z,21.60
2018-05-03T12:06:54.362Z,21.80
2018-05-03T12:09:23.536Z,21.80
2018-05-03T12:11:52.787Z,21.10
2018-05-03T12:14:22.133Z,20.80
2018-05-03T12:16:52.880Z,21.00
2018-05-03T12:19:22.271Z,21.00
2018-05-03T12:21:51.472Z,21.20
2018-05-03T12:24:20.838Z,21.40
2018-05-03T12:26:49.998Z,21.60
2018-05-03T12:29:19.213Z,21.80
2018-05-03T12:31:48.443Z,22.00
2018-05-03T12:34:17.703Z,21.60
2018-05-03T12:36:47.675Z,20.90
2018-05-03T12:39:16.978Z,20.80
2018-05-03T12:41:46.282Z,20.50
2018-05-03T12:44:15.450Z,20.50
2018-05-03T12:46:44.721Z,20.30
2018-05-03T12:49:14.685Z,20.50
2018-05-03T12:51:43.929Z,20.50
2018-05-03T12:54:13.089Z,20.50
2018-05-03T12:56:42.289Z,20.20
2018-05-03T12:59:11.540Z,20.20
2018-05-03T13:01:40.790Z,20.30
2018-05-03T13:04:10.082Z,20.50
2018-05-03T13:06:39.371Z,20.70
2018-05-03T13:09:08.685Z,21.00
2018-05-03T13:11:37.997Z,20.80
2018-05-03T13:14:07.290Z,20.60
2018-05-03T13:16:36.585Z,20.60
2018-05-03T13:19:05.988Z,20.50
2018-05-03T13:21:35.194Z,20.50
2018-05-03T13:24:04.445Z,20.50
2018-05-03T13:26:34.402Z,20.40
2018-05-03T13:29:03.703Z,20.40
2018-05-03T13:31:32.909Z,20.40
2018-05-03T13:34:02.206Z,20.50
2018-05-03T13:36:32.213Z,21.10
2018-05-03T13:39:01.412Z,21.00
2018-05-03T13:41:30.716Z,21.00
2018-05-03T13:43:59.916Z,20.80
2018-05-03T13:46:29.315Z,20.80
2018-05-03T13:48:58.528Z,21.00
2018-05-03T13:51:27.769Z,21.00
2018-05-03T13:53:57.833Z,21.10
2018-05-03T13:56:27.130Z,21.10
2018-05-03T13:58:56.332Z,21.10
2018-05-03T14:01:25.730Z,21.30
2018-05-03T14:03:54.980Z,21.50
2018-05-03T14:06:24.338Z,21.50
2018-05-03T14:08:53.636Z,21.30
2018-05-03T14:11:22.877Z,20.80
2018-05-03T14:13:52.851Z,20.90
2018-05-03T14:16:21.995Z,20.90
2018-05-03T14:18:51.291Z,21.00
2018-05-03T14:21:20.526Z,21.10
2018-05-03T14:23:49.841Z,21.10
2018-05-03T14:26:19.083Z,21.10
2018-05-03T14:28:48.346Z,21.20
2018-05-03T14:31:17.572Z,21.20
2018-05-03T14:33:47.043Z,21.20
2018-05-03T14:36:16.199Z,21.00
2018-05-03T14:38:45.440Z,20.90
2018-05-03T14:41:14.836Z,20.80
2018-05-03T14:43:44.028Z,21.10
2018-05-03T14:46:13.153Z,21.30
2018-05-03T14:48:42.376Z,21.10
2018-05-03T14:51:11.593Z,21.10
2018-05-03T14:53:41.652Z,21.10
2018-05-03T14:56:10.840Z,21.10
2018-05-03T14:58:40.059Z,21.20
2018-05-03T15:01:09.259Z,21.20
2018-05-03T15:03:38.508Z,20.90
2018-05-03T15:06:07.699Z,20.80
2018-05-03T15:08:36.901Z,20.80
2018-05-03T15:11:06.147Z,20.80
2018-05-03T15:13:35.338Z,20.80
2018-05-03T15:16:04.545Z,20.80
2018-05-03T15:18:33.889Z,20.90
2018-05-03T15:21:03.133Z,20.90
2018-05-03T15:23:32.371Z,20.90
2018-05-03T15:26:02.382Z,20.80
2018-05-03T15:28:31.599Z,20.80
2018-05-03T15:31:00.956Z,20.70
2018-05-03T15:33:30.135Z,20.60
2018-05-03T15:35:59.448Z,20.60
2018-05-03T15:38:28.817Z,20.70
2018-05-03T15:40:58.146Z,20.90
2018-05-03T15:43:27.448Z,21.00
2018-05-03T15:45:56.749Z,21.20
2018-05-03T15:48:25.944Z,21.20
2018-05-03T15:50:55.261Z,21.30
2018-05-03T15:53:25.397Z,21.50
2018-05-03T15:55:55.552Z,21.30
2018-05-03T15:58:25.725Z,21.40
2018-05-03T16:00:55.009Z,21.40
2018-05-03T16:03:24.357Z,21.20
2018-05-03T16:05:54.425Z,20.70
2018-05-03T16:08:23.726Z,20.70
2018-05-03T16:10:53.026Z,20.50
2018-05-03T16:13:22.225Z,20.30
2018-05-03T16:15:51.416Z,20.30
2018-05-03T16:18:20.769Z,20.40
2018-05-03T16:20:50.027Z,20.30
2018-05-03T16:23:19.296Z,20.10
2018-05-03T16:25:48.627Z,19.90
2018-05-03T16:28:17.821Z,19.90
2018-05-03T16:30:47.226Z,19.80
2018-05-03T16:33:16.629Z,19.90
2018-05-03T16:35:45.886Z,19.90
2018-05-03T16:38:15.227Z,19.90
2018-05-03T16:40:44.537Z,19.80
2018-05-03T16:43:13.725Z,19.70
2018-05-03T16:45:43.026Z,19.80
2018-05-03T16:48:12.281Z,19.80
2018-05-03T16:50:41.525Z,19.60
2018-05-03T16:53:10.722Z,19.60
2018-05-03T16:55:39.977Z,19.50
2018-05-03T16:58:10.020Z,19.40
2018-05-03T17:00:39.184Z,19.30
2018-05-03T17:03:08.384Z,19.40
2018-05-03T17:05:37.635Z,19.20
2018-05-03T17:08:06.836Z,19.20
2018-05-03T17:10:36.143Z,19.20
2018-05-03T17:13:05.364Z,19.20
2018-05-03T17:15:34.566Z,19.10
2018-05-03T17:18:03.843Z,19.10
2018-05-03T17:20:33.083Z,19.10
2018-05-03T17:23:03.145Z,19.00
2018-05-03T17:25:32.445Z,19.00
2018-05-03T17:28:01.741Z,18.90
2018-05-03T17:30:31.085Z,18.90
2018-05-03T17:33:00.374Z,18.70
2018-05-03T17:35:29.641Z,18.70
2018-05-03T17:37:58.890Z,18.70
2018-05-03T17:40:28.964Z,18.50
2018-05-03T17:42:58.214Z,18.50
2018-05-03T17:45:27.281Z,18.40
2018-05-03T17:47:56.508Z,18.40
2018-05-03T17:50:25.809Z,18.30
2018-05-03T17:52:55.002Z,18.20
2018-05-03T17:55:24.292Z,18.20
2018-05-03T17:57:54.291Z,18.00
2018-05-03T18:00:23.464Z,18.00
2018-05-03T18:02:52.768Z,17.90
2018-05-03T18:05:22.145Z,17.90
2018-05-03T18:07:51.327Z,17.80
2018-05-03T18:10:20.772Z,17.80
2018-05-03T18:12:49.966Z,17.80
2018-05-03T18:15:19.331Z,17.70
2018-05-03T18:17:48.572Z,17.70
2018-05-03T18:20:17.765Z,17.60
2018-05-03T18:22:46.999Z,17.60
2018-05-03T18:25:16.980Z,17.50
2018-05-03T18:27:46.343Z,17.50
2018-05-03T18:30:16.297Z,17.50
2018-05-03T18:32:45.779Z,17.40
2018-05-03T18:35:15.000Z,17.40
2018-05-03T18:37:44.306Z,17.30
2018-05-03T18:40:13.503Z,17.30
2018-05-03T18:42:42.737Z,17.30
2018-05-03T18:45:12.692Z,17.10
2018-05-03T18:47:41.974Z,17.10
2018-05-03T18:50:11.943Z,17.00
2018-05-03T18:52:41.177Z,17.00
2018-05-03T18:55:10.531Z,17.00
2018-05-03T18:57:40.585Z,16.90
2018-05-03T19:00:09.878Z,16.90
2018-05-03T19:02:39.096Z,16.80
2018-05-03T19:05:08.444Z,16.80
2018-05-03T19:07:37.682Z,16.70
2018-05-03T19:10:06.976Z,16.80
2018-05-03T19:12:36.967Z,16.80
2018-05-03T19:15:06.364Z,16.70
2018-05-03T19:17:35.773Z,16.70
2018-05-03T19:20:04.998Z,16.70
2018-05-03T19:22:34.163Z,16.70
2018-05-03T19:25:03.463Z,16.70
2018-05-03T19:27:32.673Z,16.60
2018-05-03T19:30:02.029Z,16.60
2018-05-03T19:32:31.364Z,16.50
2018-05-03T19:35:00.606Z,16.50
2018-05-03T19:37:29.817Z,16.50
2018-05-03T19:39:59.039Z,16.50
2018-05-03T19:42:28.256Z,16.50
2018-05-03T19:44:57.555Z,16.50
2018-05-03T19:47:26.758Z,16.40
2018-05-03T19:49:55.929Z,16.40
2018-05-03T19:52:25.146Z,16.40
2018-05-03T19:54:54.353Z,16.40
2018-05-03T19:57:23.541Z,16.40
2018-05-03T19:59:52.877Z,16.30
2018-05-03T20:02:22.853Z,16.30
2018-05-03T20:04:52.070Z,16.30
2018-05-03T20:07:21.282Z,16.30
2018-05-03T20:09:50.546Z,16.20
2018-05-03T20:12:19.869Z,16.20
2018-05-03T20:14:49.058Z,16.20
2018-05-03T20:17:18.265Z,16.10
2018-05-03T20:19:47.643Z,16.10
2018-05-03T20:22:16.891Z,16.10
2018-05-03T20:24:46.899Z,16.10
2018-05-03T20:27:16.989Z,16.00
2018-05-03T20:29:46.212Z,16.00
2018-05-03T20:32:16.213Z,16.00
2018-05-03T20:34:45.503Z,15.90
2018-05-03T20:37:14.852Z,15.90
2018-05-03T20:39:44.169Z,15.90
2018-05-03T20:42:13.389Z,15.90
2018-05-03T20:44:42.633Z,15.90
2018-05-03T20:47:11.972Z,15.90
2018-05-03T20:49:41.215Z,15.80
2018-05-03T20:52:10.432Z,15.80
2018-05-03T20:54:40.409Z,15.80
2018-05-03T20:57:09.648Z,15.70
2018-05-03T20:59:39.677Z,15.70
2018-05-03T21:02:08.890Z,15.70
2018-05-03T21:04:38.134Z,15.70
2018-05-03T21:07:07.324Z,15.70
2018-05-03T21:09:36.535Z,15.70
2018-05-03T21:12:05.874Z,15.70
2018-05-03T21:14:35.137Z,15.70
2018-05-03T21:17:04.431Z,15.60
2018-05-03T21:19:33.760Z,15.60
2018-05-03T21:22:02.967Z,15.50
2018-05-03T21:24:33.015Z,15.50
2018-05-03T21:27:02.274Z,15.50
2018-05-03T21:29:31.542Z,15.50
2018-05-03T21:32:00.859Z,15.50
2018-05-03T21:34:30.100Z,15.50
2018-05-03T21:36:59.409Z,15.50
2018-05-03T21:39:29.563Z,15.50
2018-05-03T21:41:58.782Z,15.50
2018-05-03T21:44:28.060Z,15.50
2018-05-03T21:46:57.257Z,15.50
2018-05-03T21:49:27.306Z,15.40
2018-05-03T21:51:56.579Z,15.40
2018-05-03T21:54:25.810Z,15.50
2018-05-03T21:56:55.282Z,15.40
2018-05-03T21:59:24.266Z,15.40
2018-05-03T22:01:53.254Z,15.40
2018-05-03T22:04:22.472Z,15.40
2018-05-03T22:06:51.703Z,15.40
2018-05-03T22:09:21.781Z,15.40
2018-05-03T22:11:51.079Z,15.40
2018-05-03T22:14:20.279Z,15.40
2018-05-03T22:16:49.579Z,15.40
2018-05-03T22:19:18.803Z,15.40
2018-05-03T22:21:48.075Z,15.40
2018-05-03T22:24:17.395Z,15.30
2018-05-03T22:26:46.656Z,15.30
2018-05-03T22:29:15.937Z,15.30
2018-05-03T22:31:45.942Z,15.30
2018-05-03T22:34:16.011Z,15.30
2018-05-03T22:36:45.212Z,15.30
2018-05-03T22:39:14.827Z,15.30
2018-05-03T22:41:44.324Z,15.40
2018-05-03T22:44:13.530Z,15.40
2018-05-03T22:46:42.774Z,15.30
2018-05-03T22:49:12.835Z,15.30
2018-05-03T22:51:42.263Z,15.30
2018-05-03T22:54:11.471Z,15.30
2018-05-03T22:56:40.695Z,15.30
2018-05-03T22:59:10.111Z,15.30
2018-05-03T23:01:39.357Z,15.30
2018-05-03T23:04:08.560Z,15.20
2018-05-03T23:06:38.622Z,15.10
2018-05-03T23:09:08.776Z,15.10
2018-05-03T23:11:38.031Z,15.10
2018-05-03T23:14:07.375Z,15.10
2018-05-03T23:16:36.679Z,15.10
2018-05-03T23:19:05.981Z,15.10
2018-05-03T23:21:35.191Z,15.10
2018-05-03T23:24:04.474Z,15.10
2018-05-03T23:26:33.775Z,15.00
2018-05-03T23:29:03.074Z,15.00
2018-05-03T23:31:32.309Z,15.00
2018-05-03T23:34:02.497Z,15.00
2018-05-03T23:36:31.728Z,15.00
2018-05-03T23:39:00.983Z,15.00
2018-05-03T23:41:30.393Z,15.00
2018-05-03T23:43:59.523Z,15.00
2018-05-03T23:46:28.890Z,15.00
2018-05-03T23:48:58.115Z,15.00
2018-05-03T23:51:27.389Z,15.10
2018-05-03T23:53:56.741Z,15.00
2018-05-03T23:56:25.961Z,15.10
2018-05-03T23:58:55.293Z,15.10
